createdAt,value
2019-03-05T00:01:50.667Z,4.53
2019-03-05T00:04:20.682Z,4.70
2019-03-05T00:06:50.428Z,7.17
2019-03-05T00:09:21.131Z,5.13
2019-03-05T00:11:50.629Z,5.53
2019-03-05T00:14:24.622Z,2.97
2019-03-05T00:16:54.245Z,3.60
2019-03-05T00:19:24.233Z,5.40
2019-03-05T00:21:53.714Z,4.63
2019-03-05T00:25:00.577Z,5.17
2019-03-05T00:27:32.378Z,6.03
2019-03-05T00:30:19.755Z,4.97
2019-03-05T00:32:54.936Z,5.43
2019-03-05T00:35:43.899Z,6.50
2019-03-05T00:38:22.615Z,6.30
2019-03-05T00:41:09.498Z,5.43
2019-03-05T00:43:51.191Z,6.00
2019-03-05T00:46:23.654Z,4.47
2019-03-05T00:48:58.823Z,4.07
2019-03-05T00:51:51.418Z,4.40
2019-03-05T00:54:29.646Z,5.23
2019-03-05T00:57:02.099Z,5.20
2019-03-05T00:59:49.595Z,5.80
2019-03-05T01:02:30.722Z,4.37
2019-03-05T01:05:03.295Z,5.10
2019-03-05T01:07:32.845Z,2.60
2019-03-05T01:10:02.525Z,4.37
2019-03-05T01:12:32.341Z,4.57
2019-03-05T01:15:01.986Z,5.03
2019-03-05T01:17:31.363Z,2.97
2019-03-05T01:20:01.166Z,4.73
2019-03-05T01:22:31.225Z,3.93
2019-03-05T01:25:00.625Z,4.80
2019-03-05T01:27:30.026Z,2.83
2019-03-05T01:29:59.406Z,2.90
2019-03-05T01:32:39.223Z,0.83
2019-03-05T01:35:10.807Z,2.90
2019-03-05T01:37:40.154Z,2.13
2019-03-05T01:40:11.500Z,0.70
2019-03-05T01:42:40.907Z,2.50
2019-03-05T01:45:11.968Z,2.53
2019-03-05T01:47:41.578Z,1.37
2019-03-05T01:50:11.642Z,2.10
2019-03-05T01:52:40.981Z,2.80
2019-03-05T01:55:10.580Z,3.10
2019-03-05T01:57:39.971Z,2.90
2019-03-05T02:00:11.773Z,2.03
2019-03-05T02:02:55.256Z,3.30
2019-03-05T02:05:24.665Z,4.10
2019-03-05T02:07:55.407Z,3.50
2019-03-05T02:10:24.971Z,4.47
2019-03-05T02:12:54.518Z,3.43
2019-03-05T02:15:24.216Z,2.37
2019-03-05T02:17:53.605Z,2.87
2019-03-05T02:20:24.843Z,3.37
2019-03-05T02:23:00.567Z,4.17
2019-03-05T02:25:33.047Z,4.20
2019-03-05T02:28:29.803Z,4.53
2019-03-05T02:31:11.338Z,4.70
2019-03-05T02:33:48.991Z,3.83
2019-03-05T02:36:24.231Z,5.50
2019-03-05T02:39:14.713Z,3.93
2019-03-05T02:41:56.287Z,2.60
2019-03-05T02:44:40.736Z,4.40
2019-03-05T02:47:43.140Z,3.90
2019-03-05T02:50:30.255Z,3.27
2019-03-05T02:53:18.001Z,5.47
2019-03-05T02:56:02.642Z,3.93
2019-03-05T02:58:30.907Z,5.47
2019-03-05T03:01:02.105Z,5.07
2019-03-05T03:03:33.189Z,2.20
2019-03-05T03:06:06.941Z,4.27
2019-03-05T03:08:36.331Z,6.67
2019-03-05T03:11:05.948Z,6.47
2019-03-05T03:13:35.766Z,4.63
2019-03-05T03:16:05.191Z,6.77
2019-03-05T03:18:34.598Z,5.30
2019-03-05T03:21:04.157Z,3.50
2019-03-05T03:23:33.765Z,4.87
2019-03-05T03:26:03.295Z,4.57
2019-03-05T03:28:32.846Z,4.63
2019-03-05T03:31:02.558Z,5.40
2019-03-05T03:33:31.941Z,4.43
2019-03-05T03:36:01.335Z,4.30
2019-03-05T03:38:30.833Z,4.00
2019-03-05T03:41:00.496Z,3.80
2019-03-05T03:43:30.166Z,3.90
2019-03-05T03:45:59.542Z,4.57
2019-03-05T03:48:29.035Z,6.57
2019-03-05T03:50:58.504Z,2.30
2019-03-05T03:53:27.915Z,6.63
2019-03-05T03:55:57.904Z,6.10
2019-03-05T03:58:31.532Z,5.67
2019-03-05T04:01:01.191Z,5.57
2019-03-05T04:03:31.006Z,5.47
2019-03-05T04:06:00.574Z,6.47
2019-03-05T04:08:30.415Z,8.00
2019-03-05T04:10:59.820Z,3.57
2019-03-05T04:13:29.226Z,3.10
2019-03-05T04:15:58.615Z,4.47
2019-03-05T04:18:28.152Z,8.53
2019-03-05T04:20:57.642Z,4.17
2019-03-05T04:23:27.574Z,6.17
2019-03-05T04:25:56.913Z,1.60
2019-03-05T04:28:26.620Z,4.53
2019-03-05T04:30:56.034Z,6.90
2019-03-05T04:33:25.371Z,4.27
2019-03-05T04:35:54.771Z,3.73
2019-03-05T04:38:24.216Z,2.73
2019-03-05T04:40:53.592Z,4.67
2019-03-05T04:43:23.055Z,7.13
2019-03-05T04:45:56.756Z,5.10
2019-03-05T04:48:26.252Z,5.20
2019-03-05T04:50:58.555Z,6.17
2019-03-05T04:53:28.047Z,7.23
2019-03-05T04:55:57.418Z,5.33
2019-03-05T04:58:26.762Z,8.10
2019-03-05T05:00:56.170Z,4.93
2019-03-05T05:03:26.073Z,7.60
2019-03-05T05:05:55.424Z,7.90
2019-03-05T05:08:27.238Z,8.37
2019-03-05T05:10:56.792Z,5.27
2019-03-05T05:13:26.399Z,6.23
2019-03-05T05:15:55.788Z,5.20
2019-03-05T05:18:25.281Z,6.80
2019-03-05T05:20:54.614Z,7.67
2019-03-05T05:23:24.163Z,6.40
2019-03-05T05:25:53.569Z,10.47
2019-03-05T05:28:22.901Z,3.00
2019-03-05T05:30:52.425Z,2.80
2019-03-05T05:33:21.824Z,7.70
2019-03-05T05:35:51.226Z,0.97
2019-03-05T05:38:20.821Z,5.87
2019-03-05T05:40:50.238Z,4.40
2019-03-05T05:43:28.183Z,5.47
2019-03-05T05:45:57.738Z,4.00
2019-03-05T05:48:27.704Z,8.77
2019-03-05T05:50:57.027Z,7.00
2019-03-05T05:53:26.363Z,6.53
2019-03-05T05:55:55.868Z,5.77
2019-03-05T05:58:25.311Z,3.87
2019-03-05T06:00:56.416Z,5.87
2019-03-05T06:03:26.102Z,5.43
2019-03-05T06:05:55.491Z,5.93
2019-03-05T06:08:25.036Z,6.50
2019-03-05T06:10:54.604Z,4.40
2019-03-05T06:13:24.241Z,6.70
2019-03-05T06:15:53.627Z,4.17
2019-03-05T06:18:25.987Z,4.83
2019-03-05T06:20:56.355Z,7.40
2019-03-05T06:23:28.371Z,5.10
2019-03-05T06:25:57.734Z,5.03
2019-03-05T06:28:31.092Z,7.67
2019-03-05T06:31:00.596Z,5.67
2019-03-05T06:33:30.219Z,3.47
2019-03-05T06:35:59.802Z,6.10
2019-03-05T06:38:29.350Z,5.50
2019-03-05T06:40:59.117Z,7.53
2019-03-05T06:43:28.548Z,6.30
2019-03-05T06:45:58.356Z,8.97
2019-03-05T06:48:27.746Z,5.77
2019-03-05T06:50:57.202Z,8.93
2019-03-05T06:53:26.730Z,7.13
2019-03-05T06:55:56.167Z,4.93
2019-03-05T06:58:25.605Z,6.17
2019-03-05T07:00:56.452Z,8.77
2019-03-05T07:03:29.746Z,7.40
2019-03-05T07:06:35.387Z,4.67
2019-03-05T07:09:10.596Z,5.63
2019-03-05T07:11:49.638Z,2.57
2019-03-05T07:28:14.457Z,9.73
2019-03-05T07:30:47.407Z,3.43
2019-03-05T07:33:17.732Z,7.57
2019-03-05T07:35:47.640Z,5.50
2019-03-05T07:38:17.167Z,4.57
2019-03-05T07:40:46.619Z,6.50
2019-03-05T07:43:16.260Z,3.07
2019-03-05T07:45:45.975Z,5.50
2019-03-05T07:48:15.539Z,2.37
2019-03-05T07:50:45.011Z,3.97
2019-03-05T07:53:14.416Z,2.87
2019-03-05T07:55:44.100Z,6.20
2019-03-05T07:58:13.611Z,8.60
2019-03-05T08:00:43.137Z,7.70
2019-03-05T08:03:12.613Z,7.33
2019-03-05T08:05:42.423Z,6.83
2019-03-05T08:08:48.453Z,6.47
2019-03-05T08:11:17.877Z,8.43
2019-03-05T08:14:23.992Z,8.33
2019-03-05T08:16:53.531Z,3.40
2019-03-05T08:19:22.968Z,7.63
2019-03-05T08:21:52.407Z,5.93
2019-03-05T08:24:21.852Z,3.23
2019-03-05T08:26:51.517Z,6.63
2019-03-05T08:29:20.925Z,3.37
2019-03-05T08:31:50.406Z,6.20
2019-03-05T08:34:19.889Z,2.87
2019-03-05T08:36:49.552Z,4.00
2019-03-05T08:39:19.007Z,3.50
2019-03-05T08:41:48.583Z,7.10
2019-03-05T08:44:17.981Z,6.43
2019-03-05T08:46:47.412Z,6.27
2019-03-05T08:49:18.052Z,4.67
2019-03-05T08:51:47.744Z,2.87
2019-03-05T08:54:17.336Z,1.73
2019-03-05T08:56:46.712Z,10.53
2019-03-05T08:59:16.561Z,6.37
2019-03-05T09:01:46.035Z,8.40
2019-03-05T09:04:15.798Z,7.70
2019-03-05T09:06:45.298Z,6.30
2019-03-05T09:09:16.536Z,7.70
2019-03-05T09:11:46.548Z,7.77
2019-03-05T09:14:16.033Z,8.03
2019-03-05T09:16:45.595Z,3.97
2019-03-05T09:19:15.111Z,3.83
2019-03-05T09:21:44.480Z,5.57
2019-03-05T09:24:14.011Z,7.53
2019-03-05T09:26:50.661Z,4.77
2019-03-05T09:29:14.473Z,5.50
2019-03-05T09:31:44.212Z,2.70
2019-03-05T09:34:13.644Z,4.33
2019-03-05T09:36:51.053Z,6.10
2019-03-05T09:39:14.725Z,4.17
2019-03-05T09:41:44.764Z,3.33
2019-03-05T09:44:14.281Z,6.70
2019-03-05T09:46:43.806Z,6.07
2019-03-05T09:49:13.398Z,5.93
2019-03-05T09:51:42.834Z,6.43
2019-03-05T09:54:12.777Z,7.13
2019-03-05T09:56:42.293Z,6.07
2019-03-05T09:59:11.928Z,6.13
2019-03-05T10:01:42.655Z,7.03
2019-03-05T10:04:12.134Z,6.97
2019-03-05T10:06:41.737Z,4.70
2019-03-05T10:09:13.013Z,8.03
2019-03-05T10:11:42.641Z,4.97
2019-03-05T10:14:12.262Z,3.17
2019-03-05T10:16:42.070Z,5.40
2019-03-05T10:19:11.548Z,5.17
2019-03-05T10:21:46.165Z,6.10
2019-03-05T10:24:12.797Z,3.83
2019-03-05T10:26:42.713Z,3.67
2019-03-05T10:29:12.503Z,4.10
2019-03-05T10:31:42.146Z,3.17
2019-03-05T10:34:11.649Z,3.50
2019-03-05T10:36:42.640Z,4.90
2019-03-05T10:39:30.664Z,5.53
2019-03-05T10:41:55.415Z,4.33
2019-03-05T10:44:24.898Z,4.00
2019-03-05T10:46:56.093Z,3.23
2019-03-05T10:49:26.730Z,3.83
2019-03-05T10:51:58.797Z,3.37
2019-03-05T10:54:29.101Z,2.97
2019-03-05T10:56:58.593Z,3.60
2019-03-05T10:59:27.991Z,5.17
2019-03-05T11:01:57.513Z,5.80
2019-03-05T11:04:27.118Z,4.30
2019-03-05T11:06:56.894Z,2.63
2019-03-05T11:09:27.249Z,5.37
2019-03-05T11:11:56.727Z,4.23
2019-03-05T11:14:26.147Z,5.67
2019-03-05T11:16:55.835Z,4.30
2019-03-05T11:19:25.510Z,4.27
2019-03-05T11:21:55.082Z,1.07
2019-03-05T11:24:24.577Z,3.17
2019-03-05T11:26:54.067Z,1.77
2019-03-05T11:29:23.659Z,2.87
2019-03-05T11:31:54.729Z,1.67
2019-03-05T11:34:24.366Z,4.17
2019-03-05T11:37:00.116Z,3.13
2019-03-05T11:39:30.616Z,3.70
2019-03-05T11:42:00.152Z,2.60
2019-03-05T11:44:29.971Z,2.37
2019-03-05T11:46:59.634Z,3.40
2019-03-05T11:49:29.141Z,5.57
2019-03-05T11:51:58.856Z,14.03
2019-03-05T11:54:28.308Z,12.20
2019-03-05T11:56:57.750Z,10.83
2019-03-05T11:59:27.349Z,4.93
2019-03-05T12:01:56.839Z,7.60
2019-03-05T12:04:26.281Z,6.40
2019-03-05T12:06:56.059Z,5.40
2019-03-05T12:09:25.747Z,3.70
2019-03-05T12:11:55.187Z,6.70
2019-03-05T12:14:25.163Z,4.70
2019-03-05T12:16:54.707Z,2.10
2019-03-05T12:19:24.568Z,2.97
2019-03-05T12:21:54.223Z,2.57
2019-03-05T12:24:24.225Z,2.43
2019-03-05T12:26:55.524Z,6.03
2019-03-05T12:29:24.954Z,5.27
2019-03-05T12:31:54.359Z,6.07
2019-03-05T12:34:23.855Z,5.13
2019-03-05T12:36:53.523Z,5.57
2019-03-05T12:39:23.928Z,5.00
2019-03-05T12:41:53.449Z,4.37
2019-03-05T12:44:24.675Z,3.37
2019-03-05T12:46:55.564Z,30.77
2019-03-05T12:49:25.227Z,36.67
2019-03-05T12:51:55.702Z,31.93
2019-03-05T12:54:26.088Z,29.53
2019-03-05T12:56:55.949Z,80.37
2019-03-05T12:59:26.717Z,16.03
2019-03-05T13:01:56.402Z,33.10
2019-03-05T13:04:26.804Z,52.13
2019-03-05T13:06:56.213Z,21.00
2019-03-05T13:09:27.243Z,10.43
2019-03-05T13:11:56.618Z,13.30
2019-03-05T13:14:26.232Z,11.73
2019-03-05T13:16:55.636Z,11.23
2019-03-05T13:19:25.122Z,8.00
2019-03-05T13:21:54.994Z,4.00
2019-03-05T13:24:25.496Z,4.23
2019-03-05T13:26:54.987Z,7.13
2019-03-05T13:29:24.802Z,5.73
2019-03-05T13:31:54.166Z,6.70
2019-03-05T13:34:23.694Z,5.50
2019-03-05T13:36:53.202Z,4.30
2019-03-05T13:39:23.864Z,4.50
2019-03-05T13:41:53.877Z,6.33
2019-03-05T13:44:34.001Z,5.13
2019-03-05T13:47:06.276Z,5.20
2019-03-05T13:49:44.886Z,3.50
2019-03-05T13:52:20.203Z,3.30
2019-03-05T13:55:07.019Z,3.03
2019-03-05T13:57:51.337Z,4.10
2019-03-05T14:00:20.345Z,5.73
2019-03-05T14:03:00.740Z,3.37
2019-03-05T14:05:57.370Z,3.40
2019-03-05T14:08:41.753Z,3.90
2019-03-05T14:11:11.272Z,3.27
2019-03-05T14:13:43.591Z,3.90
2019-03-05T14:16:14.914Z,4.40
2019-03-05T14:18:44.358Z,1.83
2019-03-05T14:21:14.107Z,6.10
2019-03-05T14:23:43.683Z,4.90
2019-03-05T14:26:13.343Z,2.80
2019-03-05T14:28:43.092Z,4.87
2019-03-05T14:31:12.611Z,6.17
2019-03-05T14:36:32.003Z,3.60
2019-03-05T14:39:03.826Z,4.53
2019-03-05T14:41:37.502Z,3.47
2019-03-05T14:44:07.419Z,2.80
2019-03-05T14:46:37.345Z,2.57
2019-03-05T14:49:07.060Z,3.93
2019-03-05T14:51:36.506Z,3.83
2019-03-05T14:54:06.287Z,3.07
2019-03-05T14:56:35.965Z,1.20
2019-03-05T14:59:05.529Z,2.37
2019-03-05T15:01:35.039Z,3.90
2019-03-05T15:04:05.019Z,3.83
2019-03-05T15:07:17.539Z,3.10
2019-03-05T15:10:15.624Z,4.73
2019-03-05T15:12:54.956Z,4.27
2019-03-05T15:15:29.142Z,2.80
2019-03-05T15:18:00.582Z,2.50
2019-03-05T15:20:30.222Z,8.60
2019-03-05T15:23:00.104Z,4.67
2019-03-05T15:25:29.855Z,5.30
2019-03-05T15:27:59.329Z,0.90
2019-03-05T15:30:29.315Z,4.80
2019-03-05T15:32:59.008Z,1.90
2019-03-05T15:35:30.418Z,3.70
2019-03-05T15:37:59.841Z,3.07
2019-03-05T15:40:29.330Z,3.13
2019-03-05T15:42:59.136Z,3.67
2019-03-05T15:45:28.607Z,1.40
2019-03-05T15:47:58.295Z,3.13
2019-03-05T15:50:29.174Z,2.40
2019-03-05T15:52:59.011Z,2.10
2019-03-05T15:55:29.323Z,3.20
2019-03-05T15:57:59.275Z,2.43
2019-03-05T16:00:31.364Z,1.93
2019-03-05T16:03:01.431Z,3.43
2019-03-05T16:05:33.140Z,3.27
2019-03-05T16:08:11.492Z,4.70
2019-03-05T16:10:41.614Z,3.00
2019-03-05T16:13:11.138Z,4.33
2019-03-05T16:16:03.643Z,2.13
2019-03-05T16:18:40.818Z,4.63
2019-03-05T16:21:18.945Z,4.03
2019-03-05T16:23:48.385Z,4.27
2019-03-05T16:26:18.512Z,3.40
2019-03-05T16:28:50.883Z,2.87
2019-03-05T16:31:24.702Z,5.47
2019-03-05T16:33:56.016Z,0.33
2019-03-05T16:36:42.832Z,3.33
2019-03-05T16:39:17.232Z,3.03
2019-03-05T16:41:53.359Z,5.33
2019-03-05T16:44:26.642Z,3.53
2019-03-05T16:47:04.098Z,4.10
2019-03-05T16:49:55.428Z,2.10
2019-03-05T16:52:36.653Z,1.77
2019-03-05T16:55:10.862Z,2.43
2019-03-05T16:57:57.023Z,2.33
2019-03-05T17:00:37.336Z,0.60
2019-03-05T17:03:14.050Z,3.47
2019-03-05T17:05:51.447Z,1.60
2019-03-05T17:08:39.352Z,0.57
2019-03-05T17:11:40.676Z,2.23
2019-03-05T17:14:13.277Z,1.83
2019-03-05T17:16:45.682Z,2.67
2019-03-05T17:19:15.077Z,2.83
2019-03-05T17:21:45.578Z,2.47
2019-03-05T17:24:19.010Z,4.70
2019-03-05T17:26:49.218Z,1.60
2019-03-05T17:29:18.719Z,3.77
2019-03-05T17:31:48.583Z,3.13
2019-03-05T17:34:20.299Z,1.83
2019-03-05T17:37:29.437Z,2.23
2019-03-05T17:39:59.553Z,2.00
2019-03-05T17:42:29.098Z,2.23
2019-03-05T17:44:58.608Z,1.07
2019-03-05T17:47:28.218Z,2.63
2019-03-05T17:49:57.757Z,3.43
2019-03-05T17:52:27.722Z,4.50
2019-03-05T17:54:57.354Z,4.30
2019-03-05T17:57:27.297Z,2.73
2019-03-05T17:59:56.923Z,3.33
2019-03-05T18:02:26.602Z,3.50
2019-03-05T18:04:56.892Z,3.90
2019-03-05T18:07:26.978Z,2.47
2019-03-05T18:09:56.724Z,3.07
2019-03-05T18:12:26.267Z,3.30
2019-03-05T18:14:56.423Z,4.67
2019-03-05T18:17:26.253Z,3.67
2019-03-05T18:19:55.928Z,3.57
2019-03-05T18:22:25.516Z,2.63
2019-03-05T18:24:55.246Z,3.50
2019-03-05T18:27:25.175Z,3.07
2019-03-05T18:29:54.732Z,3.90
2019-03-05T18:32:24.250Z,4.33
2019-03-05T18:34:54.194Z,4.80
2019-03-05T18:37:25.213Z,5.43
2019-03-05T18:39:54.804Z,5.43
2019-03-05T18:42:24.799Z,5.43
2019-03-05T18:44:54.362Z,5.43
2019-03-05T18:47:25.104Z,6.13
2019-03-05T18:49:55.843Z,5.07
2019-03-05T18:52:28.002Z,5.77
2019-03-05T18:54:58.320Z,5.97
2019-03-05T18:57:29.154Z,6.97
2019-03-05T19:00:02.131Z,6.77
2019-03-05T19:02:34.026Z,6.40
2019-03-05T19:05:07.528Z,7.03
2019-03-05T19:07:48.307Z,6.03
2019-03-05T19:10:20.516Z,6.53
2019-03-05T19:12:54.466Z,6.97
2019-03-05T19:15:30.974Z,6.57
2019-03-05T19:18:00.762Z,6.47
2019-03-05T19:20:32.435Z,7.43
2019-03-05T19:23:09.296Z,6.27
2019-03-05T19:25:43.678Z,5.90
2019-03-05T19:28:13.559Z,6.10
2019-03-05T19:30:47.743Z,5.50
2019-03-05T19:33:18.163Z,6.63
2019-03-05T19:35:47.857Z,8.50
2019-03-05T19:38:20.039Z,7.10
2019-03-05T19:40:49.837Z,8.90
2019-03-05T19:43:19.454Z,7.13
2019-03-05T19:45:48.972Z,8.23
2019-03-05T19:48:19.001Z,6.33
2019-03-05T19:50:49.180Z,7.80
2019-03-05T19:53:19.165Z,7.30
2019-03-05T19:55:49.076Z,7.13
2019-03-05T19:58:19.000Z,7.90
2019-03-05T20:01:09.752Z,8.50
2019-03-05T20:03:39.586Z,7.37
2019-03-05T20:06:09.213Z,7.97
2019-03-05T20:08:40.199Z,7.33
2019-03-05T20:11:10.385Z,8.40
2019-03-05T20:13:40.251Z,7.23
2019-03-05T20:16:09.986Z,8.03
2019-03-05T20:18:39.442Z,7.57
2019-03-05T20:21:09.227Z,7.50
2019-03-05T20:23:39.887Z,7.17
2019-03-05T20:26:09.457Z,8.67
2019-03-05T20:28:39.286Z,9.03
2019-03-05T20:31:08.856Z,7.17
2019-03-05T20:33:38.453Z,8.13
2019-03-05T20:36:08.288Z,7.93
2019-03-05T20:38:54.071Z,8.73
2019-03-05T20:41:25.055Z,7.23
2019-03-05T20:43:56.309Z,8.33
2019-03-05T20:46:26.828Z,7.47
2019-03-05T20:49:02.905Z,8.17
2019-03-05T20:51:32.553Z,7.40
2019-03-05T20:54:02.109Z,7.00
2019-03-05T20:56:36.128Z,6.67
2019-03-05T20:59:06.093Z,7.80
2019-03-05T21:01:37.714Z,9.33
2019-03-05T21:04:09.538Z,11.00
2019-03-05T21:06:48.204Z,8.33
2019-03-05T21:09:22.432Z,7.50
2019-03-05T21:11:52.391Z,9.10
2019-03-05T21:14:21.998Z,7.70
2019-03-05T21:16:52.706Z,7.27
2019-03-05T21:19:23.807Z,9.77
2019-03-05T21:21:58.079Z,8.37
2019-03-05T21:24:34.591Z,9.97
2019-03-05T21:27:12.333Z,7.53
2019-03-05T21:29:56.185Z,7.87
2019-03-05T21:32:26.722Z,8.27
2019-03-05T21:35:07.296Z,8.03
2019-03-05T21:37:36.719Z,8.73
2019-03-05T21:40:15.176Z,8.43
2019-03-05T21:42:46.033Z,7.63
2019-03-05T21:45:33.513Z,9.33
2019-03-05T21:48:09.769Z,7.70
2019-03-05T21:50:42.534Z,8.23
2019-03-05T21:53:12.750Z,7.80
2019-03-05T21:55:42.597Z,8.47
2019-03-05T21:58:12.444Z,8.53
2019-03-05T22:00:42.607Z,9.57
2019-03-05T22:03:12.151Z,9.00
2019-03-05T22:05:41.557Z,9.40
2019-03-05T22:08:12.346Z,9.37
2019-03-05T22:10:41.951Z,8.60
2019-03-05T22:13:11.395Z,9.03
2019-03-05T22:15:41.521Z,11.13
2019-03-05T22:18:11.086Z,9.70
2019-03-05T22:20:40.792Z,8.47
2019-03-05T22:23:11.206Z,8.63
2019-03-05T22:26:08.020Z,9.90
2019-03-05T22:28:40.323Z,9.80
2019-03-05T22:31:11.402Z,10.57
2019-03-05T22:33:41.957Z,9.27
2019-03-05T22:36:11.468Z,10.03
2019-03-05T22:38:44.219Z,9.57
2019-03-05T22:41:19.926Z,9.17
2019-03-05T22:43:54.622Z,9.23
2019-03-05T22:46:24.967Z,12.07
2019-03-05T22:48:54.602Z,9.40
2019-03-05T22:51:24.280Z,8.93
2019-03-05T22:53:54.240Z,9.97
2019-03-05T22:56:25.169Z,8.70
2019-03-05T22:58:55.337Z,10.33
2019-03-05T23:01:28.833Z,8.83
2019-03-05T23:04:00.117Z,10.67
2019-03-05T23:06:31.294Z,11.20
2019-03-05T23:09:02.945Z,10.13
2019-03-05T23:11:34.788Z,9.50
2019-03-05T23:14:04.552Z,11.00
2019-03-05T23:16:35.089Z,11.13
2019-03-05T23:19:06.473Z,11.00
2019-03-05T23:21:37.995Z,10.33
2019-03-05T23:24:09.597Z,10.03
2019-03-05T23:26:58.903Z,11.67
2019-03-05T23:29:31.254Z,10.63
2019-03-05T23:32:01.092Z,9.83
2019-03-05T23:34:31.559Z,10.40
2019-03-05T23:37:01.287Z,10.60
2019-03-05T23:39:30.695Z,10.63
2019-03-05T23:42:00.826Z,10.87
2019-03-05T23:44:30.466Z,9.47
2019-03-05T23:46:59.947Z,9.13
2019-03-05T23:49:29.423Z,8.87
2019-03-05T23:51:58.854Z,9.40
2019-03-05T23:54:28.323Z,10.43
2019-03-05T23:56:57.945Z,9.43
2019-03-05T23:59:27.326Z,9.97
